sensor_id;sensor_type;location;lat;lon;timestamp;temperature;humidity
7413;DHT22;3748;48.136;11.538;2023-03-01T04:10:41;0.70;99.90
7413;DHT22;3748;48.136;11.538;2023-03-01T04:13:13;0.70;99.90
7413;DHT22;3748;48.136;11.538;2023-03-01T04:15:40;0.50;99.90
7413;DHT22;3748;48.136;11.538;2023-03-01T04:18:09;0.40;99.90
7413;DHT22;3748;48.136;11.538;2023-03-01T04:20:38;0.30;99.90
7413;DHT22;3748;48.136;11.538;2023-03-01T04:23:07;0.30;99.90
7413;DHT22;3748;48.136;11.538;2023-03-01T04:25:46;0.30;99.90
7413;DHT22;3748;48.136;11.538;2023-03-01T04:28:15;0.10;99.90
7413;DHT22;3748;48.136;11.538;2023-03-01T04:30:42;0.50;99.90
7413;DHT22;3748;48.136;11.538;2023-03-01T04:33:10;1.10;99.90
7413;DHT22;3748;48.136;11.538;2023-03-01T04:35:37;0.70;99.90
7413;DHT22;3748;48.136;11.538;2023-03-01T04:38:06;0.20;99.90
7413;DHT22;3748;48.136;11.538;2023-03-01T04:40:33;0.40;99.90
7413;DHT22;3748;48.136;11.538;2023-03-01T04:43:01;0.30;99.90
7413;DHT22;3748;48.136;11.538;2023-03-01T04:45:28;0.10;99.90
7413;DHT22;3748;48.136;11.538;2023-03-01T04:47:55;0.50;99.90
7413;DHT22;3748;48.136;11.538;2023-03-01T04:50:23;0.20;99.90
7413;DHT22;3748;48.136;11.538;2023-03-01T04:52:51;0.20;99.90
7413;DHT22;3748;48.136;11.538;2023-03-01T04:55:18;0.20;99.90
7413;DHT22;3748;48.136;11.538;2023-03-01T04:57:45;-0.10;99.90
7413;DHT22;3748;48.136;11.538;2023-03-01T05:00:15;-0.10;99.90
7413;DHT22;3748;48.136;11.538;2023-03-01T05:02:50;-0.10;99.90
7413;DHT22;3748;48.136;11.538;2023-03-01T05:05:24;-0.10;99.90
7413;DHT22;3748;48.136;11.538;2023-03-01T05:07:55;0.00;99.90
7413;DHT22;3748;48.136;11.538;2023-03-01T05:10:23;-0.20;99.90
7413;DHT22;3748;48.136;11.538;2023-03-01T05:12:54;-0.30;99.90
7413;DHT22;3748;48.136;11.538;2023-03-01T05:23:41;-0.20;99.90
7413;DHT22;3748;48.136;11.538;2023-03-01T05:28:43;-0.40;99.90
7413;DHT22;3748;48.136;11.538;2023-03-01T05:31:27;-0.30;99.90
7413;DHT22;3748;48.136;11.538;2023-03-01T05:34:16;-0.50;99.90
7413;DHT22;3748;48.136;11.538;2023-03-01T05:36:59;0.00;99.90
7413;DHT22;3748;48.136;11.538;2023-03-01T05:39:30;-0.50;99.90
7413;DHT22;3748;48.136;11.538;2023-03-01T05:41:58;-0.30;99.90
7413;DHT22;3748;48.136;11.538;2023-03-01T05:44:27;-0.20;99.90
7413;DHT22;3748;48.136;11.538;2023-03-01T05:46:55;-0.20;99.90
7413;DHT22;3748;48.136;11.538;2023-03-01T05:49:22;-0.10;99.90
7413;DHT22;3748;48.136;11.538;2023-03-01T05:51:51;-0.20;99.90
7413;DHT22;3748;48.136;11.538;2023-03-01T05:54:19;-0.20;99.90
7413;DHT22;3748;48.136;11.538;2023-03-01T05:56:46;-0.10;99.90
7413;DHT22;3748;48.136;11.538;2023-03-01T05:59:13;0.00;99.90
7413;DHT22;3748;48.136;11.538;2023-03-01T06:01:42;0.30;99.90
7413;DHT22;3748;48.136;11.538;2023-03-01T06:04:10;0.30;99.90
7413;DHT22;3748;48.136;11.538;2023-03-01T06:06:37;-0.10;99.90
7413;DHT22;3748;48.136;11.538;2023-03-01T06:09:11;-0.10;99.90
7413;DHT22;3748;48.136;11.538;2023-03-01T06:11:38;-0.20;99.90
7413;DHT22;3748;48.136;11.538;2023-03-01T06:14:06;-0.30;99.90
7413;DHT22;3748;48.136;11.538;2023-03-01T06:16:36;-0.50;99.90
7413;DHT22;3748;48.136;11.538;2023-03-01T06:19:08;-0.70;99.90
7413;DHT22;3748;48.136;11.538;2023-03-01T06:21:36;-0.30;99.90
7413;DHT22;3748;48.136;11.538;2023-03-01T06:24:04;-0.40;99.90
7413;DHT22;3748;48.136;11.538;2023-03-01T06:26:32;-0.40;99.90
7413;DHT22;3748;48.136;11.538;2023-03-01T06:29:13;-0.90;99.90
7413;DHT22;3748;48.136;11.538;2023-03-01T06:31:40;0.00;99.90
7413;DHT22;3748;48.136;11.538;2023-03-01T06:34:07;-0.20;99.90
7413;DHT22;3748;48.136;11.538;2023-03-01T06:36:37;-0.10;99.90
7413;DHT22;3748;48.136;11.538;2023-03-01T06:39:08;-0.30;99.90
7413;DHT22;3748;48.136;11.538;2023-03-01T06:52:45;0.90;99.90
7413;DHT22;3748;48.136;11.538;2023-03-01T06:55:12;-0.10;99.90
7413;DHT22;3748;48.136;11.538;2023-03-01T06:57:39;-0.10;99.90
7413;DHT22;3748;48.136;11.538;2023-03-01T07:02:35;-0.30;99.90
7413;DHT22;3748;48.136;11.538;2023-03-01T07:05:02;-0.50;99.90
7413;DHT22;3748;48.136;11.538;2023-03-01T07:07:30;-0.10;99.90
7413;DHT22;3748;48.136;11.538;2023-03-01T07:10:00;0.00;99.90
7413;DHT22;3748;48.136;11.538;2023-03-01T07:12:28;0.00;99.90
7413;DHT22;3748;48.136;11.538;2023-03-01T07:20:20;0.10;99.90
7413;DHT22;3748;48.136;11.538;2023-03-01T07:22:59;0.20;99.90
7413;DHT22;3748;48.136;11.538;2023-03-01T07:25:28;-0.70;99.90
7413;DHT22;3748;48.136;11.538;2023-03-01T07:27:55;0.60;99.90
7413;DHT22;3748;48.136;11.538;2023-03-01T07:30:24;0.20;99.90
7413;DHT22;3748;48.136;11.538;2023-03-01T07:32:52;1.10;99.90
7413;DHT22;3748;48.136;11.538;2023-03-01T07:35:19;0.30;99.90
7413;DHT22;3748;48.136;11.538;2023-03-01T07:37:46;0.30;99.90
7413;DHT22;3748;48.136;11.538;2023-03-01T07:40:14;2.10;99.90
7413;DHT22;3748;48.136;11.538;2023-03-01T07:42:43;0.40;99.90
7413;DHT22;3748;48.136;11.538;2023-03-01T07:45:11;0.10;99.90
7413;DHT22;3748;48.136;11.538;2023-03-01T07:47:39;0.10;99.90
7413;DHT22;3748;48.136;11.538;2023-03-01T07:50:07;-0.10;99.90
7413;DHT22;3748;48.136;11.538;2023-03-01T07:52:34;0.40;99.90
7413;DHT22;3748;48.136;11.538;2023-03-01T07:55:01;0.50;99.90
7413;DHT22;3748;48.136;11.538;2023-03-01T07:57:28;0.50;99.90
7413;DHT22;3748;48.136;11.538;2023-03-01T07:59:57;0.80;99.90
7413;DHT22;3748;48.136;11.538;2023-03-01T08:02:24;0.70;99.90
7413;DHT22;3748;48.136;11.538;2023-03-01T08:04:51;0.70;99.90
7413;DHT22;3748;48.136;11.538;2023-03-01T08:07:18;-0.50;99.90
7413;DHT22;3748;48.136;11.538;2023-03-01T08:09:46;-0.10;99.90
7413;DHT22;3748;48.136;11.538;2023-03-01T08:12:13;0.40;99.90
7413;DHT22;3748;48.136;11.538;2023-03-01T08:14:42;0.70;99.90
7413;DHT22;3748;48.136;11.538;2023-03-01T08:17:12;0.70;99.90
7413;DHT22;3748;48.136;11.538;2023-03-01T08:19:40;0.70;99.90
7413;DHT22;3748;48.136;11.538;2023-03-01T08:22:07;0.80;99.90
7413;DHT22;3748;48.136;11.538;2023-03-01T08:24:34;0.90;99.90
7413;DHT22;3748;48.136;11.538;2023-03-01T08:27:01;1.10;99.90
7413;DHT22;3748;48.136;11.538;2023-03-01T08:29:30;0.90;99.90
7413;DHT22;3748;48.136;11.538;2023-03-01T08:31:58;0.90;99.90
7413;DHT22;3748;48.136;11.538;2023-03-01T08:34:27;1.80;99.90
7413;DHT22;3748;48.136;11.538;2023-03-01T08:36:55;1.80;99.90
7413;DHT22;3748;48.136;11.538;2023-03-01T08:39:23;1.00;99.90
7413;DHT22;3748;48.136;11.538;2023-03-01T08:41:51;0.40;99.90
7413;DHT22;3748;48.136;11.538;2023-03-01T08:44:18;1.40;99.90
7413;DHT22;3748;48.136;11.538;2023-03-01T08:46:47;1.60;99.90
7413;DHT22;3748;48.136;11.538;2023-03-01T08:49:17;1.70;99.90
7413;DHT22;3748;48.136;11.538;2023-03-01T08:51:46;1.80;99.90
7413;DHT22;3748;48.136;11.538;2023-03-01T08:54:14;1.80;99.90
7413;DHT22;3748;48.136;11.538;2023-03-01T08:56:42;1.90;99.90
7413;DHT22;3748;48.136;11.538;2023-03-01T08:59:09;1.80;99.90
7413;DHT22;3748;48.136;11.538;2023-03-01T09:01:36;2.50;99.90
7413;DHT22;3748;48.136;11.538;2023-03-01T09:04:03;2.10;99.90
7413;DHT22;3748;48.136;11.538;2023-03-01T09:06:31;2.10;99.90
7413;DHT22;3748;48.136;11.538;2023-03-01T09:09:01;2.30;99.90
7413;DHT22;3748;48.136;11.538;2023-03-01T09:11:28;3.00;99.90
7413;DHT22;3748;48.136;11.538;2023-03-01T09:13:55;2.60;99.90
7413;DHT22;3748;48.136;11.538;2023-03-01T09:16:24;2.00;99.90
7413;DHT22;3748;48.136;11.538;2023-03-01T09:18:52;2.30;99.90
7413;DHT22;3748;48.136;11.538;2023-03-01T09:21:21;2.40;99.90
7413;DHT22;3748;48.136;11.538;2023-03-01T09:23:49;2.20;99.90
7413;DHT22;3748;48.136;11.538;2023-03-01T09:26:18;2.00;99.90
7413;DHT22;3748;48.136;11.538;2023-03-01T09:28:47;2.50;99.90
7413;DHT22;3748;48.136;11.538;2023-03-01T09:31:16;1.90;99.90
7413;DHT22;3748;48.136;11.538;2023-03-01T09:33:46;2.10;99.90
7413;DHT22;3748;48.136;11.538;2023-03-01T09:36:15;1.70;99.90
7413;DHT22;3748;48.136;11.538;2023-03-01T09:38:43;1.70;99.90
7413;DHT22;3748;48.136;11.538;2023-03-01T09:41:17;1.80;99.90
7413;DHT22;3748;48.136;11.538;2023-03-01T09:43:51;2.10;99.90
7413;DHT22;3748;48.136;11.538;2023-03-01T09:46:21;1.90;99.90
7413;DHT22;3748;48.136;11.538;2023-03-01T09:48:51;1.80;99.90
7413;DHT22;3748;48.136;11.538;2023-03-01T09:51:24;2.00;99.90
7413;DHT22;3748;48.136;11.538;2023-03-01T09:53:53;2.10;99.90
7413;DHT22;3748;48.136;11.538;2023-03-01T09:56:27;1.60;99.90
7413;DHT22;3748;48.136;11.538;2023-03-01T09:59:02;2.10;99.90
7413;DHT22;3748;48.136;11.538;2023-03-01T10:01:35;2.30;99.90
7413;DHT22;3748;48.136;11.538;2023-03-01T10:04:26;2.40;99.90
7413;DHT22;3748;48.136;11.538;2023-03-01T10:07:03;2.80;99.90
7413;DHT22;3748;48.136;11.538;2023-03-01T10:09:34;2.80;99.90
7413;DHT22;3748;48.136;11.538;2023-03-01T10:12:02;3.00;99.90
7413;DHT22;3748;48.136;11.538;2023-03-01T10:14:35;2.90;99.90
7413;DHT22;3748;48.136;11.538;2023-03-01T10:17:08;2.90;99.90
7413;DHT22;3748;48.136;11.538;2023-03-01T10:19:41;2.90;99.90
7413;DHT22;3748;48.136;11.538;2023-03-01T10:22:15;3.00;99.90
7413;DHT22;3748;48.136;11.538;2023-03-01T10:24:43;3.00;99.90
7413;DHT22;3748;48.136;11.538;2023-03-01T10:27:17;2.80;99.90
7413;DHT22;3748;48.136;11.538;2023-03-01T10:29:50;2.70;99.90
7413;DHT22;3748;48.136;11.538;2023-03-01T10:32:20;2.50;99.90
7413;DHT22;3748;48.136;11.538;2023-03-01T10:34:47;2.60;99.90
7413;DHT22;3748;48.136;11.538;2023-03-01T10:37:16;2.80;99.90
7413;DHT22;3748;48.136;11.538;2023-03-01T10:40:01;3.00;99.90
7413;DHT22;3748;48.136;11.538;2023-03-01T10:42:33;3.30;99.90
7413;DHT22;3748;48.136;11.538;2023-03-01T10:45:33;3.60;99.90
7413;DHT22;3748;48.136;11.538;2023-03-01T10:48:06;3.70;99.90
7413;DHT22;3748;48.136;11.538;2023-03-01T10:50:37;4.20;99.90
7413;DHT22;3748;48.136;11.538;2023-03-01T10:53:23;4.20;99.90
7413;DHT22;3748;48.136;11.538;2023-03-01T10:56:04;4.40;99.90
7413;DHT22;3748;48.136;11.538;2023-03-01T10:58:33;4.60;99.90
7413;DHT22;3748;48.136;11.538;2023-03-01T11:01:04;4.90;99.90
7413;DHT22;3748;48.136;11.538;2023-03-01T11:03:32;4.90;99.90
7413;DHT22;3748;48.136;11.538;2023-03-01T11:06:04;5.10;99.90
7413;DHT22;3748;48.136;11.538;2023-03-01T11:08:37;4.90;99.90
7413;DHT22;3748;48.136;11.538;2023-03-01T11:11:23;6.00;99.90
7413;DHT22;3748;48.136;11.538;2023-03-01T11:13:55;7.40;99.90
7413;DHT22;3748;48.136;11.538;2023-03-01T11:16:26;8.10;99.90
7413;DHT22;3748;48.136;11.538;2023-03-01T11:18:58;8.30;99.90
7413;DHT22;3748;48.136;11.538;2023-03-01T11:21:28;8.80;99.90
7413;DHT22;3748;48.136;11.538;2023-03-01T11:23:59;9.10;99.90
7413;DHT22;3748;48.136;11.538;2023-03-01T11:26:28;9.40;99.90
7413;DHT22;3748;48.136;11.538;2023-03-01T11:29:00;9.80;99.90
7413;DHT22;3748;48.136;11.538;2023-03-01T11:31:31;10.10;99.90
7413;DHT22;3748;48.136;11.538;2023-03-01T11:34:03;10.00;99.90
7413;DHT22;3748;48.136;11.538;2023-03-01T11:36:35;9.30;99.90
7413;DHT22;3748;48.136;11.538;2023-03-01T11:39:16;8.60;99.90
7413;DHT22;3748;48.136;11.538;2023-03-01T11:41:48;8.70;99.90
7413;DHT22;3748;48.136;11.538;2023-03-01T11:44:21;9.70;99.90
7413;DHT22;3748;48.136;11.538;2023-03-01T11:47:12;10.40;99.90
7413;DHT22;3748;48.136;11.538;2023-03-01T11:50:11;10.60;99.90
7413;DHT22;3748;48.136;11.538;2023-03-01T11:52:46;10.30;99.90
7413;DHT22;3748;48.136;11.538;2023-03-01T11:55:29;11.50;99.90
7413;DHT22;3748;48.136;11.538;2023-03-01T11:58:17;11.80;99.90
7413;DHT22;3748;48.136;11.538;2023-03-01T12:01:08;11.80;99.90
7413;DHT22;3748;48.136;11.538;2023-03-01T12:03:52;11.90;99.90
7413;DHT22;3748;48.136;11.538;2023-03-01T12:06:32;12.30;99.90
7413;DHT22;3748;48.136;11.538;2023-03-01T12:09:13;12.00;99.90
7413;DHT22;3748;48.136;11.538;2023-03-01T12:12:03;10.80;99.90
7413;DHT22;3748;48.136;11.538;2023-03-01T12:14:48;11.30;99.90
7413;DHT22;3748;48.136;11.538;2023-03-01T12:20:20;13.20;99.90
7413;DHT22;3748;48.136;11.538;2023-03-01T12:23:20;11.60;99.90
7413;DHT22;3748;48.136;11.538;2023-03-01T12:25:55;12.20;99.90
7413;DHT22;3748;48.136;11.538;2023-03-01T12:28:45;12.30;99.90
7413;DHT22;3748;48.136;11.538;2023-03-01T12:31:37;11.50;99.90
7413;DHT22;3748;48.136;11.538;2023-03-01T12:34:20;10.40;99.90
7413;DHT22;3748;48.136;11.538;2023-03-01T12:37:03;11.60;99.90
7413;DHT22;3748;48.136;11.538;2023-03-01T12:39:44;11.80;99.90
7413;DHT22;3748;48.136;11.538;2023-03-01T12:42:22;13.00;99.90
7413;DHT22;3748;48.136;11.538;2023-03-01T12:45:02;13.40;99.90
7413;DHT22;3748;48.136;11.538;2023-03-01T12:47:59;12.10;99.90
7413;DHT22;3748;48.136;11.538;2023-03-01T12:50:38;12.80;99.90
7413;DHT22;3748;48.136;11.538;2023-03-01T12:53:20;12.10;99.90
7413;DHT22;3748;48.136;11.538;2023-03-01T12:55:49;12.80;99.90
7413;DHT22;3748;48.136;11.538;2023-03-01T12:58:25;13.30;99.90
7413;DHT22;3748;48.136;11.538;2023-03-01T13:01:03;12.70;99.90
7413;DHT22;3748;48.136;11.538;2023-03-01T13:03:38;11.20;99.90
7413;DHT22;3748;48.136;11.538;2023-03-01T13:06:15;11.00;99.90
7413;DHT22;3748;48.136;11.538;2023-03-01T13:08:49;13.00;99.90
7413;DHT22;3748;48.136;11.538;2023-03-01T13:11:22;12.00;99.90
7413;DHT22;3748;48.136;11.538;2023-03-01T13:13:49;13.50;99.90
7413;DHT22;3748;48.136;11.538;2023-03-01T13:16:28;12.70;99.90
7413;DHT22;3748;48.136;11.538;2023-03-01T13:19:12;14.10;99.90
7413;DHT22;3748;48.136;11.538;2023-03-01T13:21:41;14.60;99.90
7413;DHT22;3748;48.136;11.538;2023-03-01T13:24:25;15.30;99.90
7413;DHT22;3748;48.136;11.538;2023-03-01T13:27:20;16.40;99.90
7413;DHT22;3748;48.136;11.538;2023-03-01T13:29:51;15.60;99.90
7413;DHT22;3748;48.136;11.538;2023-03-01T13:32:22;16.00;99.90
7413;DHT22;3748;48.136;11.538;2023-03-01T13:34:57;14.10;99.90
7413;DHT22;3748;48.136;11.538;2023-03-01T13:37:27;15.30;99.90
7413;DHT22;3748;48.136;11.538;2023-03-01T13:39:57;15.00;99.90
7413;DHT22;3748;48.136;11.538;2023-03-01T13:42:39;14.30;99.90
7413;DHT22;3748;48.136;11.538;2023-03-01T13:45:22;13.10;99.90
7413;DHT22;3748;48.136;11.538;2023-03-01T13:47:54;14.00;99.90
7413;DHT22;3748;48.136;11.538;2023-03-01T13:50:25;12.70;99.90
7413;DHT22;3748;48.136;11.538;2023-03-01T13:52:56;13.00;99.90
7413;DHT22;3748;48.136;11.538;2023-03-01T13:55:30;14.30;99.90
7413;DHT22;3748;48.136;11.538;2023-03-01T13:58:00;14.90;99.90
7413;DHT22;3748;48.136;11.538;2023-03-01T14:00:31;14.90;99.90
7413;DHT22;3748;48.136;11.538;2023-03-01T14:03:03;14.50;99.90
7413;DHT22;3748;48.136;11.538;2023-03-01T14:05:31;13.20;99.90
7413;DHT22;3748;48.136;11.538;2023-03-01T14:07:58;14.80;99.90
7413;DHT22;3748;48.136;11.538;2023-03-01T14:10:36;14.90;99.90
7413;DHT22;3748;48.136;11.538;2023-03-01T14:13:17;15.20;99.90
7413;DHT22;3748;48.136;11.538;2023-03-01T14:16:02;15.60;99.90
7413;DHT22;3748;48.136;11.538;2023-03-01T14:18:37;15.20;99.90
7413;DHT22;3748;48.136;11.538;2023-03-01T14:21:08;15.40;99.90
7413;DHT22;3748;48.136;11.538;2023-03-01T14:23:35;12.10;99.90
7413;DHT22;3748;48.136;11.538;2023-03-01T14:26:08;11.60;99.90
7413;DHT22;3748;48.136;11.538;2023-03-01T14:28:38;11.60;99.90
7413;DHT22;3748;48.136;11.538;2023-03-01T14:31:30;11.40;99.90
7413;DHT22;3748;48.136;11.538;2023-03-01T14:33:58;12.50;99.90
7413;DHT22;3748;48.136;11.538;2023-03-01T14:36:27;14.20;99.90
7413;DHT22;3748;48.136;11.538;2023-03-01T14:38:54;14.30;99.90
7413;DHT22;3748;48.136;11.538;2023-03-01T14:41:24;14.40;99.90
7413;DHT22;3748;48.136;11.538;2023-03-01T14:43:54;13.60;99.90
7413;DHT22;3748;48.136;11.538;2023-03-01T14:46:25;12.80;99.90
7413;DHT22;3748;48.136;11.538;2023-03-01T14:48:55;12.00;99.90
7413;DHT22;3748;48.136;11.538;2023-03-01T14:51:23;10.60;99.90
7413;DHT22;3748;48.136;11.538;2023-03-01T14:53:51;10.10;99.90
7413;DHT22;3748;48.136;11.538;2023-03-01T14:56:19;9.70;99.90
7413;DHT22;3748;48.136;11.538;2023-03-01T14:58:51;8.40;99.90
7413;DHT22;3748;48.136;11.538;2023-03-01T15:01:19;8.50;99.90
7413;DHT22;3748;48.136;11.538;2023-03-01T15:03:48;7.70;99.90
7413;DHT22;3748;48.136;11.538;2023-03-01T15:06:18;8.00;99.90
7413;DHT22;3748;48.136;11.538;2023-03-01T15:08:47;7.80;99.90
7413;DHT22;3748;48.136;11.538;2023-03-01T15:11:20;7.60;99.90
7413;DHT22;3748;48.136;11.538;2023-03-01T15:13:51;7.80;99.90
7413;DHT22;3748;48.136;11.538;2023-03-01T15:16:20;7.80;99.90
7413;DHT22;3748;48.136;11.538;2023-03-01T15:18:50;7.90;99.90
7413;DHT22;3748;48.136;11.538;2023-03-01T15:21:19;7.90;99.90
7413;DHT22;3748;48.136;11.538;2023-03-01T15:23:50;7.90;99.90
7413;DHT22;3748;48.136;11.538;2023-03-01T15:26:23;7.90;99.90
7413;DHT22;3748;48.136;11.538;2023-03-01T15:28:54;7.80;99.90
7413;DHT22;3748;48.136;11.538;2023-03-01T15:31:25;7.70;99.90
7413;DHT22;3748;48.136;11.538;2023-03-01T15:33:52;7.80;99.90
7413;DHT22;3748;48.136;11.538;2023-03-01T15:36:36;7.50;99.90
7413;DHT22;3748;48.136;11.538;2023-03-01T15:39:04;7.70;99.90
7413;DHT22;3748;48.136;11.538;2023-03-01T15:41:38;7.50;99.90
7413;DHT22;3748;48.136;11.538;2023-03-01T15:44:23;7.30;99.90
7413;DHT22;3748;48.136;11.538;2023-03-01T15:46:51;7.20;99.90
7413;DHT22;3748;48.136;11.538;2023-03-01T15:49:32;7.70;99.90
7413;DHT22;3748;48.136;11.538;2023-03-01T15:52:03;8.50;99.90
7413;DHT22;3748;48.136;11.538;2023-03-01T15:54:31;8.70;99.90
7413;DHT22;3748;48.136;11.538;2023-03-01T15:56:59;9.30;99.90
7413;DHT22;3748;48.136;11.538;2023-03-01T15:59:27;9.30;99.90
7413;DHT22;3748;48.136;11.538;2023-03-01T16:01:54;9.30;99.90
7413;DHT22;3748;48.136;11.538;2023-03-01T16:04:21;9.60;99.90
7413;DHT22;3748;48.136;11.538;2023-03-01T16:06:49;9.30;99.90
7413;DHT22;3748;48.136;11.538;2023-03-01T16:09:20;8.80;99.90
7413;DHT22;3748;48.136;11.538;2023-03-01T16:11:48;7.90;99.90
7413;DHT22;3748;48.136;11.538;2023-03-01T16:14:16;7.70;99.90
7413;DHT22;3748;48.136;11.538;2023-03-01T16:16:45;7.30;99.90
7413;DHT22;3748;48.136;11.538;2023-03-01T16:19:13;7.00;99.90
7413;DHT22;3748;48.136;11.538;2023-03-01T16:21:41;6.90;99.90
7413;DHT22;3748;48.136;11.538;2023-03-01T16:24:09;6.90;99.90
7413;DHT22;3748;48.136;11.538;2023-03-01T16:26:37;6.70;99.90
7413;DHT22;3748;48.136;11.538;2023-03-01T16:29:05;6.60;99.90
7413;DHT22;3748;48.136;11.538;2023-03-01T16:31:32;6.50;99.90
7413;DHT22;3748;48.136;11.538;2023-03-01T16:34:00;6.40;99.90
7413;DHT22;3748;48.136;11.538;2023-03-01T16:36:27;6.40;99.90
7413;DHT22;3748;48.136;11.538;2023-03-01T16:38:55;6.30;99.90
7413;DHT22;3748;48.136;11.538;2023-03-01T16:41:24;6.30;99.90
7413;DHT22;3748;48.136;11.538;2023-03-01T16:43:51;6.40;99.90
7413;DHT22;3748;48.136;11.538;2023-03-01T16:46:21;6.10;99.90
7413;DHT22;3748;48.136;11.538;2023-03-01T16:48:48;6.00;99.90
7413;DHT22;3748;48.136;11.538;2023-03-01T16:51:17;6.00;99.90
7413;DHT22;3748;48.136;11.538;2023-03-01T16:53:44;5.90;99.90
7413;DHT22;3748;48.136;11.538;2023-03-01T16:56:12;6.00;99.90
7413;DHT22;3748;48.136;11.538;2023-03-01T16:58:43;5.80;99.90
7413;DHT22;3748;48.136;11.538;2023-03-01T17:01:11;5.70;99.90
7413;DHT22;3748;48.136;11.538;2023-03-01T17:03:39;5.60;99.90
7413;DHT22;3748;48.136;11.538;2023-03-01T17:06:08;5.50;99.90
7413;DHT22;3748;48.136;11.538;2023-03-01T17:08:38;5.50;99.90
7413;DHT22;3748;48.136;11.538;2023-03-01T17:11:06;5.50;99.90
7413;DHT22;3748;48.136;11.538;2023-03-01T17:13:34;5.60;99.90
7413;DHT22;3748;48.136;11.538;2023-03-01T17:16:03;5.50;99.90
7413;DHT22;3748;48.136;11.538;2023-03-01T17:18:31;5.40;99.90
7413;DHT22;3748;48.136;11.538;2023-03-01T17:20:58;5.40;99.90
7413;DHT22;3748;48.136;11.538;2023-03-01T17:23:25;5.40;99.90
7413;DHT22;3748;48.136;11.538;2023-03-01T17:25:53;5.40;99.90
7413;DHT22;3748;48.136;11.538;2023-03-01T17:28:22;5.30;99.90
7413;DHT22;3748;48.136;11.538;2023-03-01T17:30:49;5.00;99.90
7413;DHT22;3748;48.136;11.538;2023-03-01T17:33:16;4.70;99.90
7413;DHT22;3748;48.136;11.538;2023-03-01T17:35:46;4.40;99.90
7413;DHT22;3748;48.136;11.538;2023-03-01T17:38:20;4.50;99.90
7413;DHT22;3748;48.136;11.538;2023-03-01T17:41:07;4.40;99.90
7413;DHT22;3748;48.136;11.538;2023-03-01T17:43:47;4.40;99.90
7413;DHT22;3748;48.136;11.538;2023-03-01T17:46:20;4.10;99.90
7413;DHT22;3748;48.136;11.538;2023-03-01T17:48:53;4.40;99.90
7413;DHT22;3748;48.136;11.538;2023-03-01T17:51:40;4.20;99.90
7413;DHT22;3748;48.136;11.538;2023-03-01T17:54:19;4.50;99.90
7413;DHT22;3748;48.136;11.538;2023-03-01T17:56:53;3.70;99.90
7413;DHT22;3748;48.136;11.538;2023-03-01T17:59:28;4.60;99.90
7413;DHT22;3748;48.136;11.538;2023-03-01T18:02:05;3.80;99.90
7413;DHT22;3748;48.136;11.538;2023-03-01T18:04:34;4.60;99.90
7413;DHT22;3748;48.136;11.538;2023-03-01T18:07:02;3.60;99.90
7413;DHT22;3748;48.136;11.538;2023-03-01T18:09:29;3.50;99.90
7413;DHT22;3748;48.136;11.538;2023-03-01T18:11:57;3.20;99.90
7413;DHT22;3748;48.136;11.538;2023-03-01T18:14:25;3.10;99.90
7413;DHT22;3748;48.136;11.538;2023-03-01T18:16:54;3.10;99.90
7413;DHT22;3748;48.136;11.538;2023-03-01T18:19:21;3.20;99.90
7413;DHT22;3748;48.136;11.538;2023-03-01T18:21:49;3.40;99.90
7413;DHT22;3748;48.136;11.538;2023-03-01T18:24:15;3.30;99.90
7413;DHT22;3748;48.136;11.538;2023-03-01T18:26:45;3.20;99.90
7413;DHT22;3748;48.136;11.538;2023-03-01T18:29:14;3.90;99.90
7413;DHT22;3748;48.136;11.538;2023-03-01T18:31:40;3.10;99.90
7413;DHT22;3748;48.136;11.538;2023-03-01T18:34:10;3.00;99.90
7413;DHT22;3748;48.136;11.538;2023-03-01T18:36:37;2.90;99.90
7413;DHT22;3748;48.136;11.538;2023-03-01T18:39:05;2.90;99.90
7413;DHT22;3748;48.136;11.538;2023-03-01T18:41:33;2.80;99.90
7413;DHT22;3748;48.136;11.538;2023-03-01T18:44:03;2.70;99.90
7413;DHT22;3748;48.136;11.538;2023-03-01T18:46:32;2.60;99.90
7413;DHT22;3748;48.136;11.538;2023-03-01T18:49:03;2.60;99.90
7413;DHT22;3748;48.136;11.538;2023-03-01T18:51:30;2.60;99.90
7413;DHT22;3748;48.136;11.538;2023-03-01T18:54:00;2.50;99.90
7413;DHT22;3748;48.136;11.538;2023-03-01T18:56:30;2.50;99.90
7413;DHT22;3748;48.136;11.538;2023-03-01T18:58:57;2.50;99.90
7413;DHT22;3748;48.136;11.538;2023-03-01T19:01:26;2.50;99.90
7413;DHT22;3748;48.136;11.538;2023-03-01T19:03:58;2.40;99.90
7413;DHT22;3748;48.136;11.538;2023-03-01T19:06:28;2.40;99.90
7413;DHT22;3748;48.136;11.538;2023-03-01T19:08:56;2.60;99.90
7413;DHT22;3748;48.136;11.538;2023-03-01T19:11:24;2.30;99.90
7413;DHT22;3748;48.136;11.538;2023-03-01T19:13:52;2.40;99.90
7413;DHT22;3748;48.136;11.538;2023-03-01T19:16:22;2.30;99.90
7413;DHT22;3748;48.136;11.538;2023-03-01T19:18:56;2.40;99.90
7413;DHT22;3748;48.136;11.538;2023-03-01T19:21:28;2.30;99.90
7413;DHT22;3748;48.136;11.538;2023-03-01T19:23:56;2.30;99.90
7413;DHT22;3748;48.136;11.538;2023-03-01T19:26:25;2.30;99.90
7413;DHT22;3748;48.136;11.538;2023-03-01T19:28:54;2.30;99.90
7413;DHT22;3748;48.136;11.538;2023-03-01T19:31:23;2.20;99.90
7413;DHT22;3748;48.136;11.538;2023-03-01T19:33:51;2.20;99.90
7413;DHT22;3748;48.136;11.538;2023-03-01T19:36:20;2.20;99.90
7413;DHT22;3748;48.136;11.538;2023-03-01T19:38:53;2.10;99.90
7413;DHT22;3748;48.136;11.538;2023-03-01T19:41:23;2.10;99.90
7413;DHT22;3748;48.136;11.538;2023-03-01T19:43:51;2.10;99.90
7413;DHT22;3748;48.136;11.538;2023-03-01T19:46:19;2.20;99.90
7413;DHT22;3748;48.136;11.538;2023-03-01T19:48:50;2.50;99.90
7413;DHT22;3748;48.136;11.538;2023-03-01T19:51:17;2.10;99.90
7413;DHT22;3748;48.136;11.538;2023-03-01T19:53:45;2.10;99.90
7413;DHT22;3748;48.136;11.538;2023-03-01T19:56:17;2.20;99.90
7413;DHT22;3748;48.136;11.538;2023-03-01T19:58:44;2.00;99.90
7413;DHT22;3748;48.136;11.538;2023-03-01T20:01:14;2.10;99.90
7413;DHT22;3748;48.136;11.538;2023-03-01T20:03:52;2.00;99.90
7413;DHT22;3748;48.136;11.538;2023-03-01T20:06:23;2.20;99.90
7413;DHT22;3748;48.136;11.538;2023-03-01T20:08:52;2.10;99.90
7413;DHT22;3748;48.136;11.538;2023-03-01T20:11:19;2.20;99.90
7413;DHT22;3748;48.136;11.538;2023-03-01T20:13:46;2.20;99.90
7413;DHT22;3748;48.136;11.538;2023-03-01T20:16:15;2.30;99.90
7413;DHT22;3748;48.136;11.538;2023-03-01T20:18:42;2.30;99.90
7413;DHT22;3748;48.136;11.538;2023-03-01T20:21:09;2.30;99.90
7413;DHT22;3748;48.136;11.538;2023-03-01T20:23:36;2.30;99.90
7413;DHT22;3748;48.136;11.538;2023-03-01T20:26:06;2.40;99.90
7413;DHT22;3748;48.136;11.538;2023-03-01T20:28:34;2.40;99.90
7413;DHT22;3748;48.136;11.538;2023-03-01T20:31:03;2.50;99.90
7413;DHT22;3748;48.136;11.538;2023-03-01T20:33:31;2.50;99.90
7413;DHT22;3748;48.136;11.538;2023-03-01T20:35:58;2.50;99.90
7413;DHT22;3748;48.136;11.538;2023-03-01T20:38:25;2.50;99.90
7413;DHT22;3748;48.136;11.538;2023-03-01T20:40:56;2.60;99.90
7413;DHT22;3748;48.136;11.538;2023-03-01T20:43:24;2.70;99.90
7413;DHT22;3748;48.136;11.538;2023-03-01T20:45:51;2.70;99.90
7413;DHT22;3748;48.136;11.538;2023-03-01T20:48:18;2.70;99.90
7413;DHT22;3748;48.136;11.538;2023-03-01T20:50:45;2.70;99.90
7413;DHT22;3748;48.136;11.538;2023-03-01T20:53:18;2.70;99.90
7413;DHT22;3748;48.136;11.538;2023-03-01T20:56:01;2.50;99.90
7413;DHT22;3748;48.136;11.538;2023-03-01T20:58:29;2.80;99.90
7413;DHT22;3748;48.136;11.538;2023-03-01T21:00:57;2.70;99.90
7413;DHT22;3748;48.136;11.538;2023-03-01T21:03:24;2.70;99.90
7413;DHT22;3748;48.136;11.538;2023-03-01T21:05:54;2.70;99.90